sensor_id;sensor_type;location;lat;lon;timestamp;pressure;altitude;pressure_sealevel;temperature;humidity
85798;BME280;76244;53.434;14.484;2024-02-23T00:02:37;98287.64;;;11.06;78.86
85798;BME280;76244;53.434;14.484;2024-02-23T00:05:10;98294.84;;;11.06;79.08
85798;BME280;76244;53.434;14.484;2024-02-23T00:07:42;98295.02;;;11.06;79.09
85798;BME280;76244;53.434;14.484;2024-02-23T00:10:15;98298.77;;;11.05;78.81
85798;BME280;76244;53.434;14.484;2024-02-23T00:12:48;98296.23;;;11.02;78.95
85798;BME280;76244;53.434;14.484;2024-02-23T00:15:20;98299.42;;;11.02;78.88
85798;BME280;76244;53.434;14.484;2024-02-23T00:17:55;98298.88;;;11.02;79.13
85798;BME280;76244;53.434;14.484;2024-02-23T00:20:27;98296.27;;;11.01;79.14
85798;BME280;76244;53.434;14.484;2024-02-23T00:23:01;98297.62;;;11.02;79.15
85798;BME280;76244;53.434;14.484;2024-02-23T00:25:33;98300.88;;;11.04;78.95
85798;BME280;76244;53.434;14.484;2024-02-23T00:28:06;98289.98;;;11.04;79.15
85798;BME280;76244;53.434;14.484;2024-02-23T00:30:39;98295.69;;;11.03;78.98
85798;BME280;76244;53.434;14.484;2024-02-23T00:33:11;98296.05;;;11.03;78.84
85798;BME280;76244;53.434;14.484;2024-02-23T00:35:43;98299.60;;;11.01;79.08
85798;BME280;76244;53.434;14.484;2024-02-23T00:38:16;98293.95;;;11.02;79.14
85798;BME280;76244;53.434;14.484;2024-02-23T00:40:48;98294.83;;;11.02;78.87
85798;BME280;76244;53.434;14.484;2024-02-23T00:43:22;98303.45;;;11.02;78.76
85798;BME280;76244;53.434;14.484;2024-02-23T00:45:54;98300.25;;;11.03;78.71
85798;BME280;76244;53.434;14.484;2024-02-23T00:48:27;98292.17;;;11.02;78.63
85798;BME280;76244;53.434;14.484;2024-02-23T00:50:59;98291.50;;;11.01;78.77
85798;BME280;76244;53.434;14.484;2024-02-23T00:53:33;98296.27;;;11.01;78.42
85798;BME280;76244;53.434;14.484;2024-02-23T00:56:06;98292.73;;;11.02;78.47
85798;BME280;76244;53.434;14.484;2024-02-23T00:58:38;98287.45;;;11.02;78.29
85798;BME280;76244;53.434;14.484;2024-02-23T01:01:11;98286.60;;;11.01;78.26
85798;BME280;76244;53.434;14.484;2024-02-23T01:03:43;98281.65;;;11.01;78.13
85798;BME280;76244;53.434;14.484;2024-02-23T01:06:15;98281.13;;;11.01;78.17
85798;BME280;76244;53.434;14.484;2024-02-23T01:08:50;98280.63;;;11.00;78.01
85798;BME280;76244;53.434;14.484;2024-02-23T01:11:22;98283.86;;;10.99;78.13
85798;BME280;76244;53.434;14.484;2024-02-23T01:13:55;98281.80;;;10.98;77.78
85798;BME280;76244;53.434;14.484;2024-02-23T01:16:27;98277.98;;;10.96;77.93
85798;BME280;76244;53.434;14.484;2024-02-23T01:18:59;98280.29;;;10.96;77.73
85798;BME280;76244;53.434;14.484;2024-02-23T01:21:34;98276.23;;;10.96;77.88
85798;BME280;76244;53.434;14.484;2024-02-23T01:24:06;98273.98;;;10.95;77.65
85798;BME280;76244;53.434;14.484;2024-02-23T01:26:40;98272.66;;;10.93;77.68
85798;BME280;76244;53.434;14.484;2024-02-23T01:29:13;98271.16;;;10.91;77.80
85798;BME280;76244;53.434;14.484;2024-02-23T01:31:47;98272.58;;;10.90;77.56
85798;BME280;76244;53.434;14.484;2024-02-23T01:34:19;98275.58;;;10.90;77.42
85798;BME280;76244;53.434;14.484;2024-02-23T01:36:52;98280.31;;;10.91;77.44
85798;BME280;76244;53.434;14.484;2024-02-23T01:39:24;98283.85;;;10.90;77.35
85798;BME280;76244;53.434;14.484;2024-02-23T01:41:59;98292.30;;;10.90;77.31
85798;BME280;76244;53.434;14.484;2024-02-23T01:44:31;98300.09;;;10.89;77.43
85798;BME280;76244;53.434;14.484;2024-02-23T01:47:03;98305.61;;;10.88;77.31
85798;BME280;76244;53.434;14.484;2024-02-23T01:49:36;98309.31;;;10.88;77.34
85798;BME280;76244;53.434;14.484;2024-02-23T01:52:08;98313.88;;;10.88;77.33
85798;BME280;76244;53.434;14.484;2024-02-23T01:54:41;98315.05;;;10.90;77.05
85798;BME280;76244;53.434;14.484;2024-02-23T01:57:14;98318.52;;;10.91;77.03
85798;BME280;76244;53.434;14.484;2024-02-23T02:00:10;98319.63;;;10.89;77.06
85798;BME280;76244;53.434;14.484;2024-02-23T02:02:46;98328.48;;;10.88;77.08
85798;BME280;76244;53.434;14.484;2024-02-23T02:05:18;98327.58;;;10.89;77.10
85798;BME280;76244;53.434;14.484;2024-02-23T02:07:52;98333.94;;;10.88;76.93
85798;BME280;76244;53.434;14.484;2024-02-23T02:10:30;98335.53;;;10.88;76.82
85798;BME280;76244;53.434;14.484;2024-02-23T02:13:06;98340.10;;;10.88;76.72
85798;BME280;76244;53.434;14.484;2024-02-23T02:15:38;98344.34;;;10.88;76.86
85798;BME280;76244;53.434;14.484;2024-02-23T02:18:10;98349.73;;;10.89;76.81
85798;BME280;76244;53.434;14.484;2024-02-23T02:20:50;98355.49;;;10.91;76.85
85798;BME280;76244;53.434;14.484;2024-02-23T02:23:23;98360.04;;;10.92;76.84
85798;BME280;76244;53.434;14.484;2024-02-23T02:25:56;98373.45;;;10.91;76.62
85798;BME280;76244;53.434;14.484;2024-02-23T02:28:29;98379.42;;;10.91;76.69
85798;BME280;76244;53.434;14.484;2024-02-23T02:31:01;98386.45;;;10.92;76.78
85798;BME280;76244;53.434;14.484;2024-02-23T02:33:34;98391.27;;;10.94;76.46
85798;BME280;76244;53.434;14.484;2024-02-23T02:36:07;98398.45;;;10.96;76.40
85798;BME280;76244;53.434;14.484;2024-02-23T02:38:39;98416.15;;;10.98;76.30
85798;BME280;76244;53.434;14.484;2024-02-23T02:41:12;98423.17;;;10.99;76.26
85798;BME280;76244;53.434;14.484;2024-02-23T02:43:44;98431.43;;;10.99;76.21
85798;BME280;76244;53.434;14.484;2024-02-23T02:46:16;98440.73;;;11.00;76.07
85798;BME280;76244;53.434;14.484;2024-02-23T02:48:49;98444.65;;;10.99;75.66
85798;BME280;76244;53.434;14.484;2024-02-23T02:51:21;98451.54;;;10.98;75.61
85798;BME280;76244;53.434;14.484;2024-02-23T02:53:53;98466.95;;;11.00;75.80
85798;BME280;76244;53.434;14.484;2024-02-23T02:56:25;98476.07;;;11.02;75.56
85798;BME280;76244;53.434;14.484;2024-02-23T02:58:58;98489.94;;;11.02;75.60
85798;BME280;76244;53.434;14.484;2024-02-23T03:01:30;98500.32;;;11.03;75.06
85798;BME280;76244;53.434;14.484;2024-02-23T03:04:03;98507.48;;;11.04;75.08
85798;BME280;76244;53.434;14.484;2024-02-23T03:06:35;98509.14;;;11.02;74.40
85798;BME280;76244;53.434;14.484;2024-02-23T03:09:08;98522.36;;;11.01;74.18
85798;BME280;76244;53.434;14.484;2024-02-23T03:11:40;98538.95;;;11.01;73.13
85798;BME280;76244;53.434;14.484;2024-02-23T03:14:13;98537.62;;;10.99;72.54
85798;BME280;76244;53.434;14.484;2024-02-23T03:16:45;98546.79;;;10.99;72.61
85798;BME280;76244;53.434;14.484;2024-02-23T03:19:20;98552.64;;;10.97;72.08
85798;BME280;76244;53.434;14.484;2024-02-23T03:21:54;98558.77;;;10.93;69.65
85798;BME280;76244;53.434;14.484;2024-02-23T03:24:26;98572.98;;;10.90;67.34
85798;BME280;76244;53.434;14.484;2024-02-23T03:26:59;98574.80;;;10.84;63.84
85798;BME280;76244;53.434;14.484;2024-02-23T03:29:31;98579.40;;;10.78;63.13
85798;BME280;76244;53.434;14.484;2024-02-23T03:32:05;98583.30;;;10.72;63.25
85798;BME280;76244;53.434;14.484;2024-02-23T03:34:38;98579.98;;;10.67;61.71
85798;BME280;76244;53.434;14.484;2024-02-23T03:37:10;98588.14;;;10.60;60.46
85798;BME280;76244;53.434;14.484;2024-02-23T03:39:42;98598.75;;;10.54;60.48
85798;BME280;76244;53.434;14.484;2024-02-23T03:42:15;98603.02;;;10.47;60.89
85798;BME280;76244;53.434;14.484;2024-02-23T03:44:47;98616.55;;;10.42;60.93
85798;BME280;76244;53.434;14.484;2024-02-23T03:47:19;98631.46;;;10.38;61.11
85798;BME280;76244;53.434;14.484;2024-02-23T03:49:52;98637.41;;;10.34;60.66
85798;BME280;76244;53.434;14.484;2024-02-23T03:52:24;98649.51;;;10.30;60.34
85798;BME280;76244;53.434;14.484;2024-02-23T03:54:56;98658.91;;;10.27;59.78
85798;BME280;76244;53.434;14.484;2024-02-23T03:57:28;98666.56;;;10.24;59.76
85798;BME280;76244;53.434;14.484;2024-02-23T04:00:01;98662.24;;;10.21;59.22
85798;BME280;76244;53.434;14.484;2024-02-23T04:02:34;98666.38;;;10.19;59.39
85798;BME280;76244;53.434;14.484;2024-02-23T04:05:07;98669.64;;;10.16;60.16
85798;BME280;76244;53.434;14.484;2024-02-23T04:07:42;98682.70;;;10.14;60.17
85798;BME280;76244;53.434;14.484;2024-02-23T04:10:15;98684.17;;;10.12;59.40
85798;BME280;76244;53.434;14.484;2024-02-23T04:12:49;98686.36;;;10.10;59.62
85798;BME280;76244;53.434;14.484;2024-02-23T04:15:21;98690.02;;;10.06;59.50
85798;BME280;76244;53.434;14.484;2024-02-23T04:17:54;98696.59;;;10.04;59.22
85798;BME280;76244;53.434;14.484;2024-02-23T04:20:27;98702.14;;;9.99;59.45
85798;BME280;76244;53.434;14.484;2024-02-23T04:22:59;98711.89;;;9.97;59.54
85798;BME280;76244;53.434;14.484;2024-02-23T04:25:32;98719.77;;;9.92;58.54
85798;BME280;76244;53.434;14.484;2024-02-23T04:28:05;98722.05;;;9.87;58.67
85798;BME280;76244;53.434;14.484;2024-02-23T04:30:37;98723.73;;;9.84;58.39
85798;BME280;76244;53.434;14.484;2024-02-23T04:33:09;98726.66;;;9.80;58.46
85798;BME280;76244;53.434;14.484;2024-02-23T04:35:42;98730.46;;;9.75;58.18
85798;BME280;76244;53.434;14.484;2024-02-23T04:38:14;98734.08;;;9.72;58.34
85798;BME280;76244;53.434;14.484;2024-02-23T04:40:46;98741.19;;;9.70;58.24
85798;BME280;76244;53.434;14.484;2024-02-23T04:43:19;98754.09;;;9.67;57.77
85798;BME280;76244;53.434;14.484;2024-02-23T04:45:51;98761.43;;;9.62;57.77
85798;BME280;76244;53.434;14.484;2024-02-23T04:48:23;98765.59;;;9.58;57.44
85798;BME280;76244;53.434;14.484;2024-02-23T04:50:56;98768.33;;;9.55;57.04
85798;BME280;76244;53.434;14.484;2024-02-23T04:53:29;98767.94;;;9.49;56.61
85798;BME280;76244;53.434;14.484;2024-02-23T04:56:01;98773.81;;;9.47;57.06
85798;BME280;76244;53.434;14.484;2024-02-23T04:58:33;98775.98;;;9.44;56.26
85798;BME280;76244;53.434;14.484;2024-02-23T05:01:05;98778.88;;;9.42;56.16
85798;BME280;76244;53.434;14.484;2024-02-23T05:03:38;98778.08;;;9.39;55.73
85798;BME280;76244;53.434;14.484;2024-02-23T05:06:10;98778.66;;;9.37;55.53
85798;BME280;76244;53.434;14.484;2024-02-23T05:08:44;98785.73;;;9.35;55.25
85798;BME280;76244;53.434;14.484;2024-02-23T05:11:17;98788.44;;;9.33;54.92
85798;BME280;76244;53.434;14.484;2024-02-23T05:13:50;98798.73;;;9.28;54.26
85798;BME280;76244;53.434;14.484;2024-02-23T05:16:22;98804.09;;;9.25;54.05
85798;BME280;76244;53.434;14.484;2024-02-23T05:18:54;98816.61;;;9.23;54.25
85798;BME280;76244;53.434;14.484;2024-02-23T05:21:26;98824.77;;;9.20;53.79
85798;BME280;76244;53.434;14.484;2024-02-23T05:23:58;98828.00;;;9.17;54.08
85798;BME280;76244;53.434;14.484;2024-02-23T05:26:31;98840.88;;;9.15;54.05
85798;BME280;76244;53.434;14.484;2024-02-23T05:29:04;98840.58;;;9.13;53.76
85798;BME280;76244;53.434;14.484;2024-02-23T05:31:50;98848.88;;;9.11;53.62
85798;BME280;76244;53.434;14.484;2024-02-23T05:34:23;98851.10;;;9.06;53.15
85798;BME280;76244;53.434;14.484;2024-02-23T05:37:01;98866.84;;;9.01;53.69
85798;BME280;76244;53.434;14.484;2024-02-23T05:39:33;98870.95;;;8.98;53.71
85798;BME280;76244;53.434;14.484;2024-02-23T05:42:06;98875.42;;;8.95;53.79
85798;BME280;76244;53.434;14.484;2024-02-23T05:44:38;98889.67;;;8.93;53.74
85798;BME280;76244;53.434;14.484;2024-02-23T05:47:11;98895.88;;;8.91;53.33
85798;BME280;76244;53.434;14.484;2024-02-23T05:49:44;98899.63;;;8.88;53.72
85798;BME280;76244;53.434;14.484;2024-02-23T05:52:17;98903.71;;;8.86;54.05
85798;BME280;76244;53.434;14.484;2024-02-23T05:54:49;98917.68;;;8.81;54.38
85798;BME280;76244;53.434;14.484;2024-02-23T05:57:22;98932.49;;;8.79;54.49
85798;BME280;76244;53.434;14.484;2024-02-23T05:59:55;98932.90;;;8.75;54.73
85798;BME280;76244;53.434;14.484;2024-02-23T06:02:28;98936.64;;;8.74;55.15
85798;BME280;76244;53.434;14.484;2024-02-23T06:05:00;98943.36;;;8.71;54.95
85798;BME280;76244;53.434;14.484;2024-02-23T06:07:33;98952.56;;;8.68;55.09
85798;BME280;76244;53.434;14.484;2024-02-23T06:10:07;98955.31;;;8.63;55.58
85798;BME280;76244;53.434;14.484;2024-02-23T06:12:40;98967.64;;;8.61;56.07
85798;BME280;76244;53.434;14.484;2024-02-23T06:15:12;98983.13;;;8.57;56.10
85798;BME280;76244;53.434;14.484;2024-02-23T06:17:45;99000.23;;;8.53;56.49
85798;BME280;76244;53.434;14.484;2024-02-23T06:20:17;99008.56;;;8.50;57.27
85798;BME280;76244;53.434;14.484;2024-02-23T06:22:50;99031.58;;;8.47;57.36
85798;BME280;76244;53.434;14.484;2024-02-23T06:25:23;99050.42;;;8.43;58.05
85798;BME280;76244;53.434;14.484;2024-02-23T06:27:55;99055.05;;;8.40;58.52
85798;BME280;76244;53.434;14.484;2024-02-23T06:30:27;99062.30;;;8.35;58.72
85798;BME280;76244;53.434;14.484;2024-02-23T06:33:00;99069.95;;;8.29;59.16
85798;BME280;76244;53.434;14.484;2024-02-23T06:35:33;99078.97;;;8.25;59.54
85798;BME280;76244;53.434;14.484;2024-02-23T06:38:05;99080.25;;;8.22;59.58
85798;BME280;76244;53.434;14.484;2024-02-23T06:40:38;99086.66;;;8.17;59.45
85798;BME280;76244;53.434;14.484;2024-02-23T06:43:21;99093.23;;;8.12;59.48
85798;BME280;76244;53.434;14.484;2024-02-23T06:45:54;99098.36;;;8.08;59.62
85798;BME280;76244;53.434;14.484;2024-02-23T06:48:26;99103.70;;;8.05;59.70
85798;BME280;76244;53.434;14.484;2024-02-23T06:51:00;99117.74;;;8.02;60.07
85798;BME280;76244;53.434;14.484;2024-02-23T06:53:33;99138.64;;;8.00;60.27
85798;BME280;76244;53.434;14.484;2024-02-23T06:56:07;99137.07;;;8.00;60.66
85798;BME280;76244;53.434;14.484;2024-02-23T06:58:39;99145.68;;;7.99;60.72
85798;BME280;76244;53.434;14.484;2024-02-23T07:01:11;99161.84;;;7.97;60.82
85798;BME280;76244;53.434;14.484;2024-02-23T07:03:44;99176.59;;;7.95;61.16
85798;BME280;76244;53.434;14.484;2024-02-23T07:06:16;99186.77;;;7.94;61.42
85798;BME280;76244;53.434;14.484;2024-02-23T07:08:50;99181.52;;;7.94;61.27
85798;BME280;76244;53.434;14.484;2024-02-23T07:11:22;99196.46;;;7.91;61.18
85798;BME280;76244;53.434;14.484;2024-02-23T07:13:56;99206.48;;;7.88;61.01
85798;BME280;76244;53.434;14.484;2024-02-23T07:16:29;99209.70;;;7.84;60.63
85798;BME280;76244;53.434;14.484;2024-02-23T07:19:01;99211.13;;;7.83;60.62
85798;BME280;76244;53.434;14.484;2024-02-23T07:21:34;99218.48;;;7.83;60.61
85798;BME280;76244;53.434;14.484;2024-02-23T07:24:11;99227.41;;;7.83;60.19
85798;BME280;76244;53.434;14.484;2024-02-23T07:26:43;99228.64;;;7.84;60.10
85798;BME280;76244;53.434;14.484;2024-02-23T07:29:16;99227.91;;;7.85;60.22
85798;BME280;76244;53.434;14.484;2024-02-23T07:31:48;99233.84;;;7.87;60.24
85798;BME280;76244;53.434;14.484;2024-02-23T07:34:21;99248.69;;;7.91;60.57
85798;BME280;76244;53.434;14.484;2024-02-23T07:36:54;99249.69;;;7.95;60.59
85798;BME280;76244;53.434;14.484;2024-02-23T07:39:27;99261.56;;;7.98;60.43
85798;BME280;76244;53.434;14.484;2024-02-23T07:41:59;99270.85;;;7.98;60.11
85798;BME280;76244;53.434;14.484;2024-02-23T07:44:31;99268.59;;;7.96;59.88
85798;BME280;76244;53.434;14.484;2024-02-23T07:47:04;99268.77;;;7.96;59.49
85798;BME280;76244;53.434;14.484;2024-02-23T07:49:36;99269.86;;;7.94;59.04
85798;BME280;76244;53.434;14.484;2024-02-23T07:52:09;99273.90;;;7.94;58.96
85798;BME280;76244;53.434;14.484;2024-02-23T07:54:41;99284.42;;;7.93;58.65
85798;BME280;76244;53.434;14.484;2024-02-23T07:57:14;99301.42;;;7.92;58.35
85798;BME280;76244;53.434;14.484;2024-02-23T07:59:48;99304.76;;;7.92;58.50
85798;BME280;76244;53.434;14.484;2024-02-23T08:02:21;99301.97;;;7.91;58.05
85798;BME280;76244;53.434;14.484;2024-02-23T08:04:53;99299.88;;;7.89;57.82
85798;BME280;76244;53.434;14.484;2024-02-23T08:07:26;99307.64;;;7.86;57.94
85798;BME280;76244;53.434;14.484;2024-02-23T08:09:59;99302.42;;;7.83;57.97
85798;BME280;76244;53.434;14.484;2024-02-23T08:12:31;99305.93;;;7.82;57.22
85798;BME280;76244;53.434;14.484;2024-02-23T08:15:09;99308.23;;;7.81;57.25
85798;BME280;76244;53.434;14.484;2024-02-23T08:17:41;99315.23;;;7.81;57.67
85798;BME280;76244;53.434;14.484;2024-02-23T08:20:14;99317.67;;;7.82;57.55
85798;BME280;76244;53.434;14.484;2024-02-23T08:22:46;99322.24;;;7.81;57.42
85798;BME280;76244;53.434;14.484;2024-02-23T08:25:19;99322.93;;;7.82;57.62
85798;BME280;76244;53.434;14.484;2024-02-23T08:27:51;99321.88;;;7.82;57.73
85798;BME280;76244;53.434;14.484;2024-02-23T08:30:23;99325.39;;;7.83;57.40
85798;BME280;76244;53.434;14.484;2024-02-23T08:32:55;99339.23;;;7.82;57.14
85798;BME280;76244;53.434;14.484;2024-02-23T08:35:28;99347.13;;;7.83;57.22
85798;BME280;76244;53.434;14.484;2024-02-23T08:38:00;99356.42;;;7.81;56.84
85798;BME280;76244;53.434;14.484;2024-02-23T08:40:34;99365.02;;;7.80;56.57
85798;BME280;76244;53.434;14.484;2024-02-23T08:43:06;99368.54;;;7.80;56.57
85798;BME280;76244;53.434;14.484;2024-02-23T08:45:39;99382.02;;;7.79;56.51
85798;BME280;76244;53.434;14.484;2024-02-23T08:48:11;99377.83;;;7.78;56.67
85798;BME280;76244;53.434;14.484;2024-02-23T08:50:46;99383.77;;;7.79;56.99
85798;BME280;76244;53.434;14.484;2024-02-23T08:53:19;99389.91;;;7.80;57.24
85798;BME280;76244;53.434;14.484;2024-02-23T08:55:51;99394.98;;;7.81;57.34
85798;BME280;76244;53.434;14.484;2024-02-23T08:58:24;99398.63;;;7.83;57.66
85798;BME280;76244;53.434;14.484;2024-02-23T09:00:56;99399.30;;;7.86;57.56
85798;BME280;76244;53.434;14.484;2024-02-23T09:03:29;99405.06;;;7.88;57.82
85798;BME280;76244;53.434;14.484;2024-02-23T09:06:02;99404.87;;;7.90;57.95
85798;BME280;76244;53.434;14.484;2024-02-23T09:08:36;99410.98;;;7.93;58.18
85798;BME280;76244;53.434;14.484;2024-02-23T09:11:08;99413.56;;;7.96;58.07
85798;BME280;76244;53.434;14.484;2024-02-23T09:13:43;99415.27;;;8.00;58.18
85798;BME280;76244;53.434;14.484;2024-02-23T09:16:15;99424.33;;;8.04;58.08
85798;BME280;76244;53.434;14.484;2024-02-23T09:18:48;99428.15;;;8.08;57.45
85798;BME280;76244;53.434;14.484;2024-02-23T09:21:20;99430.59;;;8.10;56.73
85798;BME280;76244;53.434;14.484;2024-02-23T09:23:53;99433.19;;;8.12;56.71
85798;BME280;76244;53.434;14.484;2024-02-23T09:26:25;99439.83;;;8.14;56.50
85798;BME280;76244;53.434;14.484;2024-02-23T09:28:57;99444.21;;;8.14;55.78
85798;BME280;76244;53.434;14.484;2024-02-23T09:31:30;99452.11;;;8.14;55.36
85798;BME280;76244;53.434;14.484;2024-02-23T09:34:03;99456.98;;;8.16;55.39
85798;BME280;76244;53.434;14.484;2024-02-23T09:36:35;99461.18;;;8.18;55.35
85798;BME280;76244;53.434;14.484;2024-02-23T09:39:07;99470.63;;;8.20;55.07
85798;BME280;76244;53.434;14.484;2024-02-23T09:41:40;99465.52;;;8.20;54.10
85798;BME280;76244;53.434;14.484;2024-02-23T09:44:14;99467.12;;;8.20;54.24
85798;BME280;76244;53.434;14.484;2024-02-23T09:46:48;99460.80;;;8.20;54.38
85798;BME280;76244;53.434;14.484;2024-02-23T09:49:23;99465.70;;;8.22;54.25
85798;BME280;76244;53.434;14.484;2024-02-23T09:51:56;99476.04;;;8.22;53.42
85798;BME280;76244;53.434;14.484;2024-02-23T09:54:29;99466.56;;;8.23;53.55
85798;BME280;76244;53.434;14.484;2024-02-23T09:57:02;99474.61;;;8.24;53.38
85798;BME280;76244;53.434;14.484;2024-02-23T09:59:36;99475.30;;;8.25;53.95
85798;BME280;76244;53.434;14.484;2024-02-23T10:02:12;99478.26;;;8.28;53.46
85798;BME280;76244;53.434;14.484;2024-02-23T10:04:46;99481.75;;;8.29;52.66
85798;BME280;76244;53.434;14.484;2024-02-23T10:07:20;99477.69;;;8.31;52.57
85798;BME280;76244;53.434;14.484;2024-02-23T10:09:55;99479.58;;;8.35;52.59
85798;BME280;76244;53.434;14.484;2024-02-23T10:12:29;99479.73;;;8.38;52.25
85798;BME280;76244;53.434;14.484;2024-02-23T10:15:01;99495.14;;;8.41;51.39
85798;BME280;76244;53.434;14.484;2024-02-23T10:17:35;99492.14;;;8.43;50.41
85798;BME280;76244;53.434;14.484;2024-02-23T10:20:09;99497.91;;;8.46;50.14
85798;BME280;76244;53.434;14.484;2024-02-23T10:22:42;99502.08;;;8.48;50.58
85798;BME280;76244;53.434;14.484;2024-02-23T10:25:15;99510.64;;;8.51;51.03
85798;BME280;76244;53.434;14.484;2024-02-23T10:27:48;99516.02;;;8.56;51.49
85798;BME280;76244;53.434;14.484;2024-02-23T10:30:20;99520.89;;;8.60;51.37
85798;BME280;76244;53.434;14.484;2024-02-23T10:32:57;99529.96;;;8.64;51.00
85798;BME280;76244;53.434;14.484;2024-02-23T10:35:30;99535.00;;;8.69;50.56
85798;BME280;76244;53.434;14.484;2024-02-23T10:38:08;99537.06;;;8.71;50.37
85798;BME280;76244;53.434;14.484;2024-02-23T10:40:44;99538.27;;;8.74;49.42
85798;BME280;76244;53.434;14.484;2024-02-23T10:43:19;99538.41;;;8.75;49.31
85798;BME280;76244;53.434;14.484;2024-02-23T10:45:52;99539.11;;;8.76;48.78
85798;BME280;76244;53.434;14.484;2024-02-23T10:48:25;99532.07;;;8.78;48.95
85798;BME280;76244;53.434;14.484;2024-02-23T10:51:00;99524.33;;;8.81;49.05
85798;BME280;76244;53.434;14.484;2024-02-23T10:53:33;99512.34;;;8.83;49.20
85798;BME280;76244;53.434;14.484;2024-02-23T10:56:07;99513.71;;;8.86;49.19
85798;BME280;76244;53.434;14.484;2024-02-23T10:58:40;99525.80;;;8.88;48.94
85798;BME280;76244;53.434;14.484;2024-02-23T11:01:14;99527.00;;;8.90;48.32
85798;BME280;76244;53.434;14.484;2024-02-23T11:03:47;99517.14;;;8.92;48.37
85798;BME280;76244;53.434;14.484;2024-02-23T11:06:28;99519.20;;;8.96;47.78
85798;BME280;76244;53.434;14.484;2024-02-23T11:09:07;99518.63;;;8.99;47.20
85798;BME280;76244;53.434;14.484;2024-02-23T11:11:50;99519.48;;;9.01;47.13
85798;BME280;76244;53.434;14.484;2024-02-23T11:14:32;99518.91;;;9.02;46.72
85798;BME280;76244;53.434;14.484;2024-02-23T11:17:06;99513.81;;;9.03;46.10
85798;BME280;76244;53.434;14.484;2024-02-23T11:19:41;99520.82;;;9.05;45.99
85798;BME280;76244;53.434;14.484;2024-02-23T11:22:25;99524.83;;;9.08;45.72
85798;BME280;76244;53.434;14.484;2024-02-23T11:25:09;99526.17;;;9.11;46.13
85798;BME280;76244;53.434;14.484;2024-02-23T11:27:42;99534.94;;;9.13;46.23
85798;BME280;76244;53.434;14.484;2024-02-23T11:30:18;99536.33;;;9.15;46.09
85798;BME280;76244;53.434;14.484;2024-02-23T11:32:50;99537.34;;;9.16;46.19
85798;BME280;76244;53.434;14.484;2024-02-23T11:35:31;99536.77;;;9.19;46.23
85798;BME280;76244;53.434;14.484;2024-02-23T11:38:05;99544.64;;;9.22;46.06
85798;BME280;76244;53.434;14.484;2024-02-23T11:40:38;99540.21;;;9.25;46.40
85798;BME280;76244;53.434;14.484;2024-02-23T11:43:11;99533.30;;;9.27;46.41
85798;BME280;76244;53.434;14.484;2024-02-23T11:45:46;99542.42;;;9.30;46.39
85798;BME280;76244;53.434;14.484;2024-02-23T11:48:18;99543.09;;;9.33;46.58
85798;BME280;76244;53.434;14.484;2024-02-23T11:50:54;99555.16;;;9.36;46.41
85798;BME280;76244;53.434;14.484;2024-02-23T11:53:27;99553.55;;;9.37;45.86
85798;BME280;76244;53.434;14.484;2024-02-23T11:56:01;99546.13;;;9.41;45.70
85798;BME280;76244;53.434;14.484;2024-02-23T11:58:34;99542.92;;;9.43;46.14
85798;BME280;76244;53.434;14.484;2024-02-23T12:01:06;99549.92;;;9.45;46.17
85798;BME280;76244;53.434;14.484;2024-02-23T12:03:38;99557.08;;;9.48;45.84
85798;BME280;76244;53.434;14.484;2024-02-23T12:06:11;99561.80;;;9.50;45.41
85798;BME280;76244;53.434;14.484;2024-02-23T12:08:46;99569.33;;;9.52;45.15
85798;BME280;76244;53.434;14.484;2024-02-23T12:11:20;99575.13;;;9.53;45.01
85798;BME280;76244;53.434;14.484;2024-02-23T12:13:53;99575.09;;;9.54;45.04
85798;BME280;76244;53.434;14.484;2024-02-23T12:16:28;99574.71;;;9.57;45.34
85798;BME280;76244;53.434;14.484;2024-02-23T12:19:02;99568.16;;;9.59;45.78
85798;BME280;76244;53.434;14.484;2024-02-23T12:21:36;99574.96;;;9.63;46.11
85798;BME280;76244;53.434;14.484;2024-02-23T12:24:29;99580.35;;;9.66;45.69
85798;BME280;76244;53.434;14.484;2024-02-23T12:27:01;99581.59;;;9.67;45.86
85798;BME280;76244;53.434;14.484;2024-02-23T12:29:36;99595.65;;;9.67;45.79
85798;BME280;76244;53.434;14.484;2024-02-23T12:32:09;99599.86;;;9.68;46.08
85798;BME280;76244;53.434;14.484;2024-02-23T12:34:43;99598.45;;;9.68;45.49
85798;BME280;76244;53.434;14.484;2024-02-23T12:37:17;99607.55;;;9.70;45.27
85798;BME280;76244;53.434;14.484;2024-02-23T12:39:49;99611.03;;;9.72;45.51
85798;BME280;76244;53.434;14.484;2024-02-23T12:42:22;99612.23;;;9.74;45.99
85798;BME280;76244;53.434;14.484;2024-02-23T12:44:54;99608.33;;;9.76;45.75
85798;BME280;76244;53.434;14.484;2024-02-23T12:47:27;99607.24;;;9.78;46.11
85798;BME280;76244;53.434;14.484;2024-02-23T12:49:59;99607.73;;;9.81;46.22
85798;BME280;76244;53.434;14.484;2024-02-23T12:52:31;99608.58;;;9.83;45.74
85798;BME280;76244;53.434;14.484;2024-02-23T12:55:04;99613.83;;;9.85;45.69
85798;BME280;76244;53.434;14.484;2024-02-23T12:57:36;99611.52;;;9.87;45.39
85798;BME280;76244;53.434;14.484;2024-02-23T13:00:11;99604.98;;;9.89;45.24
85798;BME280;76244;53.434;14.484;2024-02-23T13:02:44;99608.81;;;9.91;45.23
85798;BME280;76244;53.434;14.484;2024-02-23T13:05:17;99617.20;;;9.93;44.78
85798;BME280;76244;53.434;14.484;2024-02-23T13:07:49;99618.44;;;9.94;44.88
85798;BME280;76244;53.434;14.484;2024-02-23T13:10:22;99622.95;;;9.96;44.71
85798;BME280;76244;53.434;14.484;2024-02-23T13:12:54;99623.65;;;9.97;44.76
85798;BME280;76244;53.434;14.484;2024-02-23T13:15:26;99617.67;;;9.97;45.07
85798;BME280;76244;53.434;14.484;2024-02-23T13:17:59;99623.44;;;9.99;45.19
85798;BME280;76244;53.434;14.484;2024-02-23T13:20:33;99629.92;;;10.02;45.10
85798;BME280;76244;53.434;14.484;2024-02-23T13:23:05;99630.77;;;10.03;44.72
85798;BME280;76244;53.434;14.484;2024-02-23T13:25:40;99637.45;;;10.03;44.91
85798;BME280;76244;53.434;14.484;2024-02-23T13:28:12;99634.80;;;10.05;45.29
85798;BME280;76244;53.434;14.484;2024-02-23T13:30:44;99636.52;;;10.06;45.55